sensor_id;sensor_type;location;lat;lon;timestamp;pressure;altitude;pressure_sealevel;temperature;humidity
49709;BME280;35601;55.902;13.606;2023-07-02T00:02:07;98901.69;;;14.69;90.15
49709;BME280;35601;55.902;13.606;2023-07-02T00:04:32;98900.87;;;14.69;90.19
49709;BME280;35601;55.902;13.606;2023-07-02T00:06:57;98897.58;;;14.69;90.33
49709;BME280;35601;55.902;13.606;2023-07-02T00:09:22;98895.94;;;14.34;90.82
49709;BME280;35601;55.902;13.606;2023-07-02T00:11:47;98892.94;;;14.46;91.44
49709;BME280;35601;55.902;13.606;2023-07-02T00:14:13;98891.65;;;14.43;91.40
49709;BME280;35601;55.902;13.606;2023-07-02T00:16:39;98891.81;;;14.57;91.03
49709;BME280;35601;55.902;13.606;2023-07-02T00:19:04;98897.36;;;14.47;91.43
49709;BME280;35601;55.902;13.606;2023-07-02T00:21:28;98899.86;;;14.54;90.92
49709;BME280;35601;55.902;13.606;2023-07-02T00:23:54;98898.07;;;14.39;90.87
49709;BME280;35601;55.902;13.606;2023-07-02T00:26:18;98896.33;;;14.53;90.10
49709;BME280;35601;55.902;13.606;2023-07-02T00:28:43;98899.99;;;14.48;89.29
49709;BME280;35601;55.902;13.606;2023-07-02T00:31:08;98898.67;;;14.20;88.58
49709;BME280;35601;55.902;13.606;2023-07-02T00:33:34;98899.06;;;14.42;87.97
49709;BME280;35601;55.902;13.606;2023-07-02T00:35:59;98897.01;;;14.11;87.70
49709;BME280;35601;55.902;13.606;2023-07-02T00:38:24;98894.87;;;14.15;87.61
49709;BME280;35601;55.902;13.606;2023-07-02T00:40:50;98898.40;;;14.17;87.80
49709;BME280;35601;55.902;13.606;2023-07-02T00:43:15;98895.74;;;12.87;86.94
49709;BME280;35601;55.902;13.606;2023-07-02T00:45:42;98895.46;;;13.99;86.09
49709;BME280;35601;55.902;13.606;2023-07-02T00:48:07;98899.36;;;14.17;86.15
49709;BME280;35601;55.902;13.606;2023-07-02T00:50:32;98899.49;;;14.29;86.31
49709;BME280;35601;55.902;13.606;2023-07-02T00:52:57;98893.61;;;14.25;86.46
49709;BME280;35601;55.902;13.606;2023-07-02T00:55:21;98892.56;;;14.25;86.23
49709;BME280;35601;55.902;13.606;2023-07-02T00:57:48;98892.41;;;14.20;86.13
49709;BME280;35601;55.902;13.606;2023-07-02T01:00:12;98887.30;;;14.19;85.90
49709;BME280;35601;55.902;13.606;2023-07-02T01:02:36;98885.81;;;14.27;85.84
49709;BME280;35601;55.902;13.606;2023-07-02T01:05:02;98884.97;;;13.92;85.74
49709;BME280;35601;55.902;13.606;2023-07-02T01:07:26;98886.18;;;14.05;85.02
49709;BME280;35601;55.902;13.606;2023-07-02T01:09:52;98879.15;;;14.15;84.82
49709;BME280;35601;55.902;13.606;2023-07-02T01:12:18;98884.68;;;13.68;84.80
49709;BME280;35601;55.902;13.606;2023-07-02T01:14:45;98883.38;;;13.78;84.24
49709;BME280;35601;55.902;13.606;2023-07-02T01:17:10;98879.72;;;13.81;84.00
49709;BME280;35601;55.902;13.606;2023-07-02T01:19:42;98881.49;;;13.99;83.91
49709;BME280;35601;55.902;13.606;2023-07-02T01:22:01;98878.45;;;13.92;83.89
49709;BME280;35601;55.902;13.606;2023-07-02T01:24:24;98882.79;;;14.10;83.90
49709;BME280;35601;55.902;13.606;2023-07-02T01:26:48;98880.81;;;14.07;83.84
49709;BME280;35601;55.902;13.606;2023-07-02T01:29:16;98879.09;;;14.09;83.83
49709;BME280;35601;55.902;13.606;2023-07-02T01:31:40;98879.55;;;14.28;83.68
49709;BME280;35601;55.902;13.606;2023-07-02T01:34:04;98879.23;;;14.05;83.41
49709;BME280;35601;55.902;13.606;2023-07-02T01:36:29;98883.90;;;13.74;84.27
49709;BME280;35601;55.902;13.606;2023-07-02T01:38:54;98876.31;;;13.70;83.75
49709;BME280;35601;55.902;13.606;2023-07-02T01:41:20;98874.94;;;13.56;83.79
49709;BME280;35601;55.902;13.606;2023-07-02T01:43:44;98875.47;;;13.67;83.50
49709;BME280;35601;55.902;13.606;2023-07-02T01:46:10;98872.12;;;13.69;83.54
49709;BME280;35601;55.902;13.606;2023-07-02T01:48:36;98878.89;;;13.69;83.37
49709;BME280;35601;55.902;13.606;2023-07-02T01:51:00;98877.62;;;13.55;83.46
49709;BME280;35601;55.902;13.606;2023-07-02T01:53:26;98878.42;;;13.42;83.79
49709;BME280;35601;55.902;13.606;2023-07-02T01:55:53;98879.85;;;13.75;83.55
49709;BME280;35601;55.902;13.606;2023-07-02T01:58:16;98875.76;;;13.35;84.29
49709;BME280;35601;55.902;13.606;2023-07-02T02:00:41;98882.12;;;13.35;84.19
49709;BME280;35601;55.902;13.606;2023-07-02T02:03:06;98883.54;;;13.86;84.17
49709;BME280;35601;55.902;13.606;2023-07-02T02:05:31;98879.96;;;13.62;83.75
49709;BME280;35601;55.902;13.606;2023-07-02T02:07:58;98877.91;;;13.78;83.62
49709;BME280;35601;55.902;13.606;2023-07-02T02:10:22;98878.14;;;13.50;83.27
49709;BME280;35601;55.902;13.606;2023-07-02T02:12:47;98874.78;;;13.42;82.89
49709;BME280;35601;55.902;13.606;2023-07-02T02:15:13;98873.43;;;13.47;82.68
49709;BME280;35601;55.902;13.606;2023-07-02T02:17:38;98872.08;;;13.51;82.08
49709;BME280;35601;55.902;13.606;2023-07-02T02:20:04;98869.04;;;13.38;82.03
49709;BME280;35601;55.902;13.606;2023-07-02T02:22:28;98869.16;;;13.35;81.90
49709;BME280;35601;55.902;13.606;2023-07-02T02:24:53;98866.07;;;13.08;81.92
49709;BME280;35601;55.902;13.606;2023-07-02T02:27:18;98868.39;;;13.12;81.98
49709;BME280;35601;55.902;13.606;2023-07-02T02:29:44;98867.35;;;12.96;82.71
49709;BME280;35601;55.902;13.606;2023-07-02T02:32:09;98862.52;;;13.25;82.99
49709;BME280;35601;55.902;13.606;2023-07-02T02:34:34;98861.63;;;13.34;82.80
49709;BME280;35601;55.902;13.606;2023-07-02T02:37:02;98859.39;;;13.25;83.07
49709;BME280;35601;55.902;13.606;2023-07-02T02:39:25;98856.94;;;13.49;82.80
49709;BME280;35601;55.902;13.606;2023-07-02T02:41:51;98859.15;;;13.18;83.18
49709;BME280;35601;55.902;13.606;2023-07-02T02:44:17;98861.67;;;13.44;83.33
49709;BME280;35601;55.902;13.606;2023-07-02T02:46:43;98859.81;;;13.48;83.13
49709;BME280;35601;55.902;13.606;2023-07-02T02:49:08;98855.05;;;13.40;83.16
49709;BME280;35601;55.902;13.606;2023-07-02T02:51:34;98858.60;;;13.30;83.62
49709;BME280;35601;55.902;13.606;2023-07-02T02:53:59;98857.86;;;13.25;83.77
49709;BME280;35601;55.902;13.606;2023-07-02T02:56:23;98859.95;;;12.85;83.73
49709;BME280;35601;55.902;13.606;2023-07-02T02:58:48;98857.82;;;13.36;83.72
49709;BME280;35601;55.902;13.606;2023-07-02T03:01:14;98856.79;;;13.27;84.39
49709;BME280;35601;55.902;13.606;2023-07-02T03:03:40;98852.64;;;13.32;84.29
49709;BME280;35601;55.902;13.606;2023-07-02T03:06:05;98854.77;;;13.26;84.10
49709;BME280;35601;55.902;13.606;2023-07-02T03:08:30;98855.25;;;13.51;84.33
49709;BME280;35601;55.902;13.606;2023-07-02T03:10:55;98853.04;;;13.26;84.55
49709;BME280;35601;55.902;13.606;2023-07-02T03:13:20;98855.90;;;13.40;85.06
49709;BME280;35601;55.902;13.606;2023-07-02T03:15:45;98849.11;;;13.45;84.88
49709;BME280;35601;55.902;13.606;2023-07-02T03:18:10;98847.64;;;13.43;84.87
49709;BME280;35601;55.902;13.606;2023-07-02T03:20:36;98843.87;;;13.58;84.37
49709;BME280;35601;55.902;13.606;2023-07-02T03:23:01;98840.09;;;13.23;84.13
49709;BME280;35601;55.902;13.606;2023-07-02T03:25:26;98841.02;;;13.47;84.34
49709;BME280;35601;55.902;13.606;2023-07-02T03:27:53;98838.57;;;13.29;84.54
49709;BME280;35601;55.902;13.606;2023-07-02T03:30:18;98834.81;;;13.48;84.47
49709;BME280;35601;55.902;13.606;2023-07-02T03:32:43;98836.10;;;13.16;84.10
49709;BME280;35601;55.902;13.606;2023-07-02T03:35:07;98839.38;;;13.68;83.63
49709;BME280;35601;55.902;13.606;2023-07-02T03:37:32;98835.71;;;13.27;83.51
49709;BME280;35601;55.902;13.606;2023-07-02T03:39:58;98838.21;;;13.68;83.74
49709;BME280;35601;55.902;13.606;2023-07-02T03:42:23;98840.34;;;13.89;82.84
49709;BME280;35601;55.902;13.606;2023-07-02T03:44:47;98839.13;;;13.45;82.23
49709;BME280;35601;55.902;13.606;2023-07-02T03:47:12;98845.64;;;13.51;81.79
49709;BME280;35601;55.902;13.606;2023-07-02T03:49:38;98843.93;;;13.47;81.71
49709;BME280;35601;55.902;13.606;2023-07-02T03:52:04;98839.10;;;13.60;81.49
49709;BME280;35601;55.902;13.606;2023-07-02T03:54:28;98834.41;;;13.32;82.12
49709;BME280;35601;55.902;13.606;2023-07-02T03:56:54;98830.62;;;13.85;82.34
49709;BME280;35601;55.902;13.606;2023-07-02T03:59:19;98829.44;;;13.60;81.71
49709;BME280;35601;55.902;13.606;2023-07-02T04:01:44;98834.63;;;13.80;81.80
49709;BME280;35601;55.902;13.606;2023-07-02T04:04:09;98832.15;;;13.74;81.87
49709;BME280;35601;55.902;13.606;2023-07-02T04:06:36;98831.65;;;13.51;81.75
49709;BME280;35601;55.902;13.606;2023-07-02T04:09:01;98834.42;;;13.84;81.41
49709;BME280;35601;55.902;13.606;2023-07-02T04:11:25;98837.77;;;14.00;81.26
49709;BME280;35601;55.902;13.606;2023-07-02T04:13:51;98846.49;;;13.61;81.25
49709;BME280;35601;55.902;13.606;2023-07-02T04:16:16;98844.29;;;13.72;81.51
49709;BME280;35601;55.902;13.606;2023-07-02T04:18:41;98846.86;;;13.46;81.34
49709;BME280;35601;55.902;13.606;2023-07-02T04:21:06;98846.83;;;13.68;80.95
49709;BME280;35601;55.902;13.606;2023-07-02T04:23:31;98845.35;;;13.46;81.11
49709;BME280;35601;55.902;13.606;2023-07-02T04:25:56;98843.24;;;13.77;80.64
49709;BME280;35601;55.902;13.606;2023-07-02T04:28:22;98844.22;;;13.65;80.82
49709;BME280;35601;55.902;13.606;2023-07-02T04:30:47;98842.60;;;14.07;80.45
49709;BME280;35601;55.902;13.606;2023-07-02T04:33:12;98841.69;;;13.91;81.26
49709;BME280;35601;55.902;13.606;2023-07-02T04:35:38;98842.39;;;14.22;79.35
49709;BME280;35601;55.902;13.606;2023-07-02T04:38:03;98846.99;;;14.31;79.88
49709;BME280;35601;55.902;13.606;2023-07-02T04:40:28;98841.27;;;14.52;77.87
49709;BME280;35601;55.902;13.606;2023-07-02T04:42:55;98840.43;;;14.69;77.53
49709;BME280;35601;55.902;13.606;2023-07-02T04:45:20;98838.80;;;14.63;77.35
49709;BME280;35601;55.902;13.606;2023-07-02T04:47:45;98838.30;;;14.72;77.22
49709;BME280;35601;55.902;13.606;2023-07-02T04:50:09;98839.76;;;14.75;76.39
49709;BME280;35601;55.902;13.606;2023-07-02T04:52:35;98845.10;;;14.72;75.58
49709;BME280;35601;55.902;13.606;2023-07-02T04:55:01;98837.49;;;13.62;75.87
49709;BME280;35601;55.902;13.606;2023-07-02T04:57:26;98843.09;;;14.53;76.15
49709;BME280;35601;55.902;13.606;2023-07-02T04:59:51;98840.64;;;14.19;75.96
49709;BME280;35601;55.902;13.606;2023-07-02T05:02:16;98842.75;;;14.68;77.36
49709;BME280;35601;55.902;13.606;2023-07-02T05:04:43;98841.70;;;14.71;76.08
49709;BME280;35601;55.902;13.606;2023-07-02T05:07:06;98839.39;;;14.52;75.51
49709;BME280;35601;55.902;13.606;2023-07-02T05:09:32;98835.61;;;14.59;75.65
49709;BME280;35601;55.902;13.606;2023-07-02T05:11:58;98833.90;;;14.99;74.41
49709;BME280;35601;55.902;13.606;2023-07-02T05:14:23;98837.34;;;15.08;73.03
49709;BME280;35601;55.902;13.606;2023-07-02T05:16:48;98835.64;;;15.07;73.42
49709;BME280;35601;55.902;13.606;2023-07-02T05:19:13;98840.08;;;15.16;73.29
49709;BME280;35601;55.902;13.606;2023-07-02T05:21:39;98844.32;;;15.31;71.75
49709;BME280;35601;55.902;13.606;2023-07-02T05:24:05;98846.60;;;15.07;72.08
49709;BME280;35601;55.902;13.606;2023-07-02T05:26:30;98842.80;;;14.94;72.14
49709;BME280;35601;55.902;13.606;2023-07-02T05:28:55;98834.52;;;14.98;72.19
49709;BME280;35601;55.902;13.606;2023-07-02T05:31:20;98836.90;;;15.01;72.37
49709;BME280;35601;55.902;13.606;2023-07-02T05:33:45;98831.46;;;15.24;71.85
49709;BME280;35601;55.902;13.606;2023-07-02T05:36:11;98830.71;;;14.73;72.48
49709;BME280;35601;55.902;13.606;2023-07-02T05:38:38;98834.57;;;15.20;73.09
49709;BME280;35601;55.902;13.606;2023-07-02T05:41:02;98843.24;;;15.21;73.13
49709;BME280;35601;55.902;13.606;2023-07-02T05:43:28;98837.33;;;15.11;72.25
49709;BME280;35601;55.902;13.606;2023-07-02T05:45:52;98844.83;;;15.11;71.98
49709;BME280;35601;55.902;13.606;2023-07-02T05:48:17;98839.06;;;15.18;72.26
49709;BME280;35601;55.902;13.606;2023-07-02T05:50:44;98839.67;;;15.45;71.17
49709;BME280;35601;55.902;13.606;2023-07-02T05:53:09;98846.80;;;15.54;70.85
49709;BME280;35601;55.902;13.606;2023-07-02T05:55:33;98844.93;;;15.55;71.48
49709;BME280;35601;55.902;13.606;2023-07-02T05:57:59;98847.61;;;15.60;70.79
49709;BME280;35601;55.902;13.606;2023-07-02T06:00:24;98841.51;;;15.55;70.22
49709;BME280;35601;55.902;13.606;2023-07-02T06:02:49;98845.33;;;15.71;70.13
49709;BME280;35601;55.902;13.606;2023-07-02T06:05:14;98841.22;;;15.68;71.68
49709;BME280;35601;55.902;13.606;2023-07-02T06:07:40;98836.03;;;15.64;71.46
49709;BME280;35601;55.902;13.606;2023-07-02T06:10:05;98831.46;;;15.61;69.95
49709;BME280;35601;55.902;13.606;2023-07-02T06:12:30;98832.27;;;15.80;68.28
49709;BME280;35601;55.902;13.606;2023-07-02T06:14:56;98841.55;;;15.79;67.32
49709;BME280;35601;55.902;13.606;2023-07-02T06:17:21;98846.85;;;15.80;68.00
49709;BME280;35601;55.902;13.606;2023-07-02T06:19:46;98843.91;;;15.93;68.51
49709;BME280;35601;55.902;13.606;2023-07-02T06:22:13;98843.70;;;15.81;69.74
49709;BME280;35601;55.902;13.606;2023-07-02T06:24:38;98844.41;;;15.58;70.29
49709;BME280;35601;55.902;13.606;2023-07-02T06:27:04;98849.21;;;15.85;72.02
49709;BME280;35601;55.902;13.606;2023-07-02T06:29:27;98855.26;;;15.65;68.61
49709;BME280;35601;55.902;13.606;2023-07-02T06:31:52;98859.58;;;15.46;62.86
49709;BME280;35601;55.902;13.606;2023-07-02T06:34:17;98856.86;;;15.39;65.48
49709;BME280;35601;55.902;13.606;2023-07-02T06:36:43;98852.31;;;15.21;66.77
49709;BME280;35601;55.902;13.606;2023-07-02T06:39:08;98851.00;;;15.18;67.41
49709;BME280;35601;55.902;13.606;2023-07-02T06:41:33;98853.48;;;15.30;67.75
49709;BME280;35601;55.902;13.606;2023-07-02T06:43:58;98856.25;;;15.44;68.21
49709;BME280;35601;55.902;13.606;2023-07-02T06:46:23;98851.87;;;15.03;66.28
49709;BME280;35601;55.902;13.606;2023-07-02T06:48:48;98852.40;;;15.66;65.91
49709;BME280;35601;55.902;13.606;2023-07-02T06:51:13;98854.38;;;15.91;62.84
49709;BME280;35601;55.902;13.606;2023-07-02T06:53:38;98854.94;;;16.31;65.26
49709;BME280;35601;55.902;13.606;2023-07-02T06:56:04;98847.17;;;16.93;63.65
49709;BME280;35601;55.902;13.606;2023-07-02T06:58:30;98851.92;;;16.49;62.13
49709;BME280;35601;55.902;13.606;2023-07-02T07:00:55;98860.58;;;16.70;63.08
49709;BME280;35601;55.902;13.606;2023-07-02T07:03:21;98854.51;;;16.62;64.17
49709;BME280;35601;55.902;13.606;2023-07-02T07:05:46;98856.38;;;16.62;65.62
49709;BME280;35601;55.902;13.606;2023-07-02T07:08:11;98866.45;;;16.21;66.01
49709;BME280;35601;55.902;13.606;2023-07-02T07:10:37;98872.68;;;16.06;66.06
49709;BME280;35601;55.902;13.606;2023-07-02T07:13:03;98870.37;;;15.77;67.02
49709;BME280;35601;55.902;13.606;2023-07-02T07:15:33;98874.86;;;15.79;68.16
49709;BME280;35601;55.902;13.606;2023-07-02T07:17:54;98874.90;;;15.61;69.37
49709;BME280;35601;55.902;13.606;2023-07-02T07:20:18;98877.55;;;15.44;69.88
49709;BME280;35601;55.902;13.606;2023-07-02T07:22:43;98866.42;;;15.20;70.79
49709;BME280;35601;55.902;13.606;2023-07-02T07:25:09;98870.26;;;15.25;72.55
49709;BME280;35601;55.902;13.606;2023-07-02T07:27:34;98864.45;;;15.52;73.38
49709;BME280;35601;55.902;13.606;2023-07-02T07:29:59;98867.20;;;15.91;69.86
49709;BME280;35601;55.902;13.606;2023-07-02T07:32:25;98862.06;;;16.34;68.97
49709;BME280;35601;55.902;13.606;2023-07-02T07:34:50;98863.33;;;16.29;66.26
49709;BME280;35601;55.902;13.606;2023-07-02T07:37:15;98863.00;;;16.60;64.87
49709;BME280;35601;55.902;13.606;2023-07-02T07:39:41;98865.69;;;16.69;64.38
49709;BME280;35601;55.902;13.606;2023-07-02T07:42:06;98864.12;;;16.40;63.39
49709;BME280;35601;55.902;13.606;2023-07-02T07:44:31;98866.69;;;16.41;60.76
49709;BME280;35601;55.902;13.606;2023-07-02T07:46:56;98872.56;;;16.19;60.96
49709;BME280;35601;55.902;13.606;2023-07-02T07:49:22;98873.20;;;16.26;64.27
49709;BME280;35601;55.902;13.606;2023-07-02T07:51:46;98871.14;;;16.39;63.55
49709;BME280;35601;55.902;13.606;2023-07-02T07:54:11;98877.47;;;16.56;63.26
49709;BME280;35601;55.902;13.606;2023-07-02T07:56:37;98872.13;;;16.89;62.17
49709;BME280;35601;55.902;13.606;2023-07-02T07:59:02;98870.30;;;17.30;62.08
49709;BME280;35601;55.902;13.606;2023-07-02T08:01:27;98868.57;;;17.13;59.22
49709;BME280;35601;55.902;13.606;2023-07-02T08:03:52;98862.61;;;17.03;59.95
49709;BME280;35601;55.902;13.606;2023-07-02T08:06:18;98865.66;;;17.37;60.35
49709;BME280;35601;55.902;13.606;2023-07-02T08:08:43;98868.49;;;17.74;56.10
49709;BME280;35601;55.902;13.606;2023-07-02T08:11:08;98884.93;;;17.71;55.69
49709;BME280;35601;55.902;13.606;2023-07-02T08:13:33;98879.32;;;17.85;51.96
49709;BME280;35601;55.902;13.606;2023-07-02T08:15:59;98889.09;;;17.92;54.20
49709;BME280;35601;55.902;13.606;2023-07-02T08:18:23;98885.96;;;17.78;57.90
49709;BME280;35601;55.902;13.606;2023-07-02T08:20:49;98885.20;;;18.19;57.47
49709;BME280;35601;55.902;13.606;2023-07-02T08:23:14;98884.39;;;18.45;55.62
49709;BME280;35601;55.902;13.606;2023-07-02T08:25:40;98885.18;;;18.65;56.99
49709;BME280;35601;55.902;13.606;2023-07-02T08:28:05;98883.15;;;18.87;53.87
49709;BME280;35601;55.902;13.606;2023-07-02T08:30:30;98883.73;;;19.01;54.42
49709;BME280;35601;55.902;13.606;2023-07-02T08:32:55;98873.75;;;18.53;52.24
49709;BME280;35601;55.902;13.606;2023-07-02T08:35:20;98872.35;;;19.09;52.55
49709;BME280;35601;55.902;13.606;2023-07-02T08:37:45;98876.77;;;19.21;52.86
49709;BME280;35601;55.902;13.606;2023-07-02T08:40:16;98872.25;;;18.63;51.90
49709;BME280;35601;55.902;13.606;2023-07-02T08:42:36;98878.18;;;18.29;50.24
49709;BME280;35601;55.902;13.606;2023-07-02T08:45:02;98889.61;;;18.30;50.55
49709;BME280;35601;55.902;13.606;2023-07-02T08:47:27;98878.68;;;18.27;50.73
49709;BME280;35601;55.902;13.606;2023-07-02T08:49:52;98882.75;;;18.41;49.37
49709;BME280;35601;55.902;13.606;2023-07-02T08:52:18;98888.21;;;18.71;48.42
49709;BME280;35601;55.902;13.606;2023-07-02T08:54:42;98891.99;;;18.36;45.31
49709;BME280;35601;55.902;13.606;2023-07-02T08:57:09;98882.92;;;18.84;47.58
49709;BME280;35601;55.902;13.606;2023-07-02T08:59:32;98882.76;;;19.01;48.05
49709;BME280;35601;55.902;13.606;2023-07-02T09:01:58;98876.30;;;19.21;49.03
49709;BME280;35601;55.902;13.606;2023-07-02T09:04:24;98873.44;;;19.67;45.53
49709;BME280;35601;55.902;13.606;2023-07-02T09:06:48;98876.03;;;19.56;44.56
49709;BME280;35601;55.902;13.606;2023-07-02T09:09:13;98883.23;;;19.64;44.66
49709;BME280;35601;55.902;13.606;2023-07-02T09:11:47;98886.00;;;19.83;45.79
49709;BME280;35601;55.902;13.606;2023-07-02T09:14:03;98891.99;;;19.91;44.24
49709;BME280;35601;55.902;13.606;2023-07-02T09:16:30;98881.12;;;19.67;43.07
49709;BME280;35601;55.902;13.606;2023-07-02T09:19:01;98882.45;;;19.76;44.64
49709;BME280;35601;55.902;13.606;2023-07-02T09:21:19;98885.59;;;19.85;45.25
49709;BME280;35601;55.902;13.606;2023-07-02T09:23:44;98885.83;;;19.49;46.11
49709;BME280;35601;55.902;13.606;2023-07-02T09:26:19;98890.06;;;19.38;47.20
49709;BME280;35601;55.902;13.606;2023-07-02T09:28:35;98891.78;;;19.32;48.49
49709;BME280;35601;55.902;13.606;2023-07-02T09:31:00;98892.30;;;18.90;48.45
49709;BME280;35601;55.902;13.606;2023-07-02T09:33:26;98888.90;;;18.60;49.78
49709;BME280;35601;55.902;13.606;2023-07-02T09:35:51;98885.49;;;18.89;50.20
49709;BME280;35601;55.902;13.606;2023-07-02T09:38:15;98892.86;;;18.73;51.94
49709;BME280;35601;55.902;13.606;2023-07-02T09:40:46;98891.37;;;18.23;50.64
49709;BME280;35601;55.902;13.606;2023-07-02T09:43:06;98892.60;;;18.56;52.25
49709;BME280;35601;55.902;13.606;2023-07-02T09:45:31;98891.14;;;18.99;51.95
49709;BME280;35601;55.902;13.606;2023-07-02T09:47:58;98899.50;;;19.57;51.83
49709;BME280;35601;55.902;13.606;2023-07-02T09:50:22;98939.99;;;19.60;49.20
49709;BME280;35601;55.902;13.606;2023-07-02T09:52:48;98941.36;;;18.46;45.74
49709;BME280;35601;55.902;13.606;2023-07-02T09:55:14;98942.35;;;17.83;49.68
49709;BME280;35601;55.902;13.606;2023-07-02T09:57:39;98939.52;;;17.26;52.07
49709;BME280;35601;55.902;13.606;2023-07-02T10:00:05;98930.12;;;17.18;52.33
49709;BME280;35601;55.902;13.606;2023-07-02T10:02:29;98924.50;;;16.85;54.81
49709;BME280;35601;55.902;13.606;2023-07-02T10:04:54;98919.41;;;17.11;55.28
49709;BME280;35601;55.902;13.606;2023-07-02T10:07:26;98925.49;;;16.64;56.90
49709;BME280;35601;55.902;13.606;2023-07-02T10:09:45;98929.41;;;16.57;57.71
49709;BME280;35601;55.902;13.606;2023-07-02T10:12:17;98919.24;;;16.63;59.94
49709;BME280;35601;55.902;13.606;2023-07-02T10:14:41;98912.10;;;16.62;58.32
49709;BME280;35601;55.902;13.606;2023-07-02T10:17:00;98904.82;;;16.92;60.75
49709;BME280;35601;55.902;13.606;2023-07-02T10:19:25;98896.43;;;17.40;64.26
49709;BME280;35601;55.902;13.606;2023-07-02T10:22:01;98893.10;;;17.45;59.35
49709;BME280;35601;55.902;13.606;2023-07-02T10:24:17;98906.94;;;17.57;59.93
49709;BME280;35601;55.902;13.606;2023-07-02T10:26:51;98911.72;;;17.66;59.01
49709;BME280;35601;55.902;13.606;2023-07-02T10:29:06;98906.98;;;17.40;58.57
49709;BME280;35601;55.902;13.606;2023-07-02T10:31:33;98904.58;;;17.23;58.93
49709;BME280;35601;55.902;13.606;2023-07-02T10:33:56;98897.63;;;17.34;59.78
49709;BME280;35601;55.902;13.606;2023-07-02T10:36:22;98892.82;;;17.85;59.66
49709;BME280;35601;55.902;13.606;2023-07-02T10:38:47;98893.15;;;18.36;57.20
49709;BME280;35601;55.902;13.606;2023-07-02T10:41:22;98890.32;;;18.84;56.71
49709;BME280;35601;55.902;13.606;2023-07-02T10:43:37;98901.35;;;19.05;56.68
49709;BME280;35601;55.902;13.606;2023-07-02T10:46:03;98903.72;;;18.50;52.89
49709;BME280;35601;55.902;13.606;2023-07-02T10:48:28;98918.24;;;18.59;55.06
49709;BME280;35601;55.902;13.606;2023-07-02T10:50:53;98936.72;;;18.35;53.86
49709;BME280;35601;55.902;13.606;2023-07-02T10:53:20;98933.75;;;17.45;52.27
49709;BME280;35601;55.902;13.606;2023-07-02T10:55:43;98941.81;;;16.95;50.35
49709;BME280;35601;55.902;13.606;2023-07-02T10:58:10;98957.60;;;16.47;54.18
49709;BME280;35601;55.902;13.606;2023-07-02T11:00:44;98955.00;;;15.83;56.65
49709;BME280;35601;55.902;13.606;2023-07-02T11:02:59;98967.83;;;15.94;57.64
49709;BME280;35601;55.902;13.606;2023-07-02T11:05:24;98974.35;;;15.45;59.03
49709;BME280;35601;55.902;13.606;2023-07-02T11:07:49;98969.43;;;15.59;59.14
49709;BME280;35601;55.902;13.606;2023-07-02T11:10:20;98971.23;;;15.11;60.49
49709;BME280;35601;55.902;13.606;2023-07-02T11:12:42;98966.96;;;15.25;62.96
49709;BME280;35601;55.902;13.606;2023-07-02T11:15:10;98971.70;;;15.34;65.68
49709;BME280;35601;55.902;13.606;2023-07-02T11:17:31;98968.11;;;15.42;66.07
49709;BME280;35601;55.902;13.606;2023-07-02T11:19:56;98967.48;;;15.71;62.80
49709;BME280;35601;55.902;13.606;2023-07-02T11:22:30;98967.14;;;16.18;67.69
49709;BME280;35601;55.902;13.606;2023-07-02T11:24:46;98964.14;;;16.58;63.17
49709;BME280;35601;55.902;13.606;2023-07-02T11:27:21;98956.11;;;17.39;59.02
49709;BME280;35601;55.902;13.606;2023-07-02T11:29:37;98947.99;;;17.65;55.62
49709;BME280;35601;55.902;13.606;2023-07-02T11:32:07;98958.52;;;17.45;55.02
49709;BME280;35601;55.902;13.606;2023-07-02T11:34:28;98956.96;;;18.07;56.47
49709;BME280;35601;55.902;13.606;2023-07-02T11:36:51;98959.64;;;17.79;49.83
49709;BME280;35601;55.902;13.606;2023-07-02T11:39:17;98959.26;;;18.16;52.61
49709;BME280;35601;55.902;13.606;2023-07-02T11:41:44;98958.61;;;18.04;48.43
49709;BME280;35601;55.902;13.606;2023-07-02T11:44:08;98951.33;;;17.95;50.57
49709;BME280;35601;55.902;13.606;2023-07-02T11:46:33;98952.76;;;18.06;52.66
49709;BME280;35601;55.902;13.606;2023-07-02T11:48:59;98956.28;;;17.85;49.49
49709;BME280;35601;55.902;13.606;2023-07-02T11:51:23;98959.43;;;18.08;48.42
49709;BME280;35601;55.902;13.606;2023-07-02T11:53:48;98952.85;;;18.47;50.41
49709;BME280;35601;55.902;13.606;2023-07-02T11:56:14;98965.68;;;18.54;49.23
49709;BME280;35601;55.902;13.606;2023-07-02T11:58:40;98960.73;;;18.77;51.74
49709;BME280;35601;55.902;13.606;2023-07-02T12:01:03;98965.57;;;19.02;50.23
49709;BME280;35601;55.902;13.606;2023-07-02T12:03:28;98961.82;;;19.54;46.82
49709;BME280;35601;55.902;13.606;2023-07-02T12:05:53;98966.47;;;19.66;48.05
49709;BME280;35601;55.902;13.606;2023-07-02T12:08:19;98969.59;;;20.21;48.08
49709;BME280;35601;55.902;13.606;2023-07-02T12:10:44;98958.53;;;20.03;48.81
49709;BME280;35601;55.902;13.606;2023-07-02T12:13:09;98962.96;;;19.90;45.61
49709;BME280;35601;55.902;13.606;2023-07-02T12:15:34;98975.99;;;19.72;44.20
49709;BME280;35601;55.902;13.606;2023-07-02T12:17:59;98990.78;;;19.33;45.72
49709;BME280;35601;55.902;13.606;2023-07-02T12:20:25;99008.53;;;18.97;46.26
49709;BME280;35601;55.902;13.606;2023-07-02T12:22:49;99013.54;;;18.58;47.94
49709;BME280;35601;55.902;13.606;2023-07-02T12:25:14;99019.85;;;17.77;48.91
49709;BME280;35601;55.902;13.606;2023-07-02T12:27:39;99015.76;;;17.30;50.12
49709;BME280;35601;55.902;13.606;2023-07-02T12:30:08;99014.03;;;17.16;50.35
49709;BME280;35601;55.902;13.606;2023-07-02T12:32:30;99015.92;;;16.74;50.39
49709;BME280;35601;55.902;13.606;2023-07-02T12:34:56;99018.75;;;16.73;51.38
49709;BME280;35601;55.902;13.606;2023-07-02T12:37:22;99014.07;;;16.44;51.15
49709;BME280;35601;55.902;13.606;2023-07-02T12:39:45;99016.35;;;16.88;52.17